Monday, November 20, 2017, 1:54 PM EST
Back to Local

KBDL, Bradley International Airport

Location: Windsor Locks, CT, United States Lat: 41.933
Local Time: 1:54 PM EST (18:54 GMT) Lon: -72.683
Time Zone: US/Eastern Elev: 173 ft

Show me the last for .
Show Decoded

2017-11-20 12:51 METAR KBDL 201751Z 32012KT 10SM BKN060 BKN070 06/M07 A2994 RMK AO2 SLP141
                 T00561072 10061 20000 58007 =
2017-11-20 11:51 METAR KBDL 201651Z 30014G20KT 10SM BKN048 BKN065 05/M06 A2995 RMK AO2 SLP144
                 T00501061 =
2017-11-20 10:51 METAR KBDL 201551Z 29013KT 10SM BKN042 BKN065 03/M06 A2997 RMK AO2 SLP150
                 T00331056 =
2017-11-20 09:51 METAR KBDL 201451Z 29009KT 250V320 10SM SCT034 BKN042 BKN050 03/M06 A2996 RMK
                 AO2 SLP148 T00281056 51018 =
2017-11-20 08:51 METAR KBDL 201351Z 30012KT 10SM FEW033 BKN070 02/M05 A2996 RMK AO2 SLP146
                 T00171050 =
2017-11-20 07:51 METAR KBDL 201251Z 33006KT 10SM SCT037 BKN046 BKN075 01/M05 A2994 RMK AO2 SLP141
                 VIRGA S-SW T00111050 =
2017-11-20 06:51 METAR KBDL 201151Z 29005KT 10SM FEW033 BKN045 BKN070 00/M06 A2991 RMK AO2 SLP130
                 VIRGA E-SE 60000 70016 T00001061 10028 21006 52035 =
2017-11-20 05:51 METAR KBDL 201051Z 29008KT 10SM FEW050 SCT070 01/M08 A2987 RMK AO2 SLP118
                 T00061078 =
2017-11-20 04:51 METAR KBDL 200951Z 31012G19KT 10SM FEW035 FEW050 01/M08 A2984 RMK AO2 SLP108
                 T00111083 =
2017-11-20 03:51 METAR KBDL 200851Z 29013G24KT 10SM FEW035 FEW060 SCT075 02/M08 A2981 RMK AO2 PK
                 WND 29029/0841 SLP095 60000 T00171078 53025 =
2017-11-20 02:51 METAR KBDL 200751Z 29012KT 10SM FEW033 SCT085 02/M06 A2978 RMK AO2 SLP087
                 T00171056 =
2017-11-20 01:51 METAR KBDL 200651Z 29012G18KT 10SM FEW031 FEW044 BKN060 02/M03 A2976 RMK AO2
                 SNE50 SLP077 P0000 T00221033 =
2017-11-20 00:51 METAR KBDL 200551Z 34008KT 10SM -SN SCT034 BKN045 BKN060 03/M03 A2973 RMK AO2
                 SLP069 RAB06E18SNB06 PCPN VRY LGT P0000 60000 T00281033 10050 20017 51016 =
2017-11-19 23:51 METAR KBDL 200451Z 28005KT 10SM FEW055 BKN070 BKN140 02/M04 A2972 RMK AO2 SLP063
                 T00221039 401390017 =
2017-11-19 22:51 METAR KBDL 200351Z 25004KT 10SM FEW080 FEW220 02/M04 A2970 RMK AO2 SLP058
                 T00221039 =
2017-11-19 21:51 METAR KBDL 200251Z 30006KT 10SM FEW080 02/M04 A2968 RMK AO2 SLP052 T00221039
                 51020 =
2017-11-19 20:51 METAR KBDL 200151Z 29011KT 10SM FEW040 03/M04 A2967 RMK AO2 SLP048 T00331044 =
2017-11-19 19:51 METAR KBDL 200051Z 27017G26KT 10SM BKN048 05/M04 A2965 RMK AO2 PK WND 28026/0047
                 SLP039 T00501039 =
2017-11-19 18:51 METAR KBDL 192351Z 28011KT 10SM BKN048 05/M04 A2962 RMK AO2 PK WND 30028/2304
                 SLP032 60000 T00501039 10089 20050 53036 =
2017-11-19 17:51 METAR KBDL 192251Z 30016G25KT 10SM BKN044 05/M03 A2959 RMK AO2 PK WND 31034/2155
                 SLP020 T00501033 =
2017-11-19 16:51 METAR KBDL 192151Z 31019G27KT 10SM BKN045 06/M03 A2955 RMK AO2 PK WND 32027/2143
                 SLP005 T00561033 =
2017-11-19 15:51 METAR KBDL 192051Z 30019G32KT 10SM BKN045 06/M03 A2952 RMK AO2 PK WND 31036/2041
                 SLP996 60000 T00611028 53041 =
2017-11-19 14:51 METAR KBDL 191951Z 29021G36KT 10SM FEW049 FEW055 07/M02 A2945 RMK AO2 PK WND
                 30036/1943 SLP973 T00721022 =

Support USWX by starting your Amazon purchase here.